Time;durP1;ratioP1;P1;durP2;ratioP2;P2;SDS_P1;SDS_P2;PMS_P1;PMS_P2;Temp;Humidity;BMP_temperature;BMP_pressure;BME280_temperature;BME280_humidity;BME280_pressure;Samples;Min_cycle;Max_cycle;Signal;HPM_P1;HPM_P2
2024/01/20 00:00:47;;;;;;;14.40;7.10;;;1.30;99.90;;;;;;4981072;28;20208;-59
2024/01/20 00:03:17;;;;;;;11.63;7.83;;;1.30;99.90;;;;;;4983586;28;20204;-58
2024/01/20 00:05:43;;;;;;;11.00;7.60;;;1.30;99.90;;;;;;4984096;28;20212;-58
2024/01/20 00:08:10;;;;;;;10.30;7.20;;;1.40;99.90;;;;;;4981771;28;20701;-58
2024/01/20 00:10:37;;;;;;;9.93;7.77;;;1.40;99.90;;;;;;4980751;28;20249;-58
2024/01/20 00:13:04;;;;;;;12.80;7.80;;;1.30;99.90;;;;;;4981738;28;20220;-59
2024/01/20 00:15:31;;;;;;;11.50;7.60;;;1.30;99.90;;;;;;4983957;28;20227;-57
2024/01/20 00:17:57;;;;;;;11.10;7.40;;;1.30;99.90;;;;;;4983709;28;20206;-59
2024/01/20 00:20:25;;;;;;;12.23;8.20;;;1.40;99.90;;;;;;4980811;28;20251;-58
2024/01/20 00:22:52;;;;;;;14.20;8.73;;;1.50;99.90;;;;;;4980750;28;20275;-59
2024/01/20 00:25:18;;;;;;;10.43;7.63;;;1.50;99.90;;;;;;4983207;28;20290;-56
2024/01/20 00:27:45;;;;;;;10.97;7.20;;;1.60;99.90;;;;;;4984057;28;20219;-59
2024/01/20 00:30:12;;;;;;;10.33;6.90;;;1.60;99.90;;;;;;4981738;28;20218;-60
2024/01/20 00:32:39;;;;;;;12.73;8.07;;;1.60;99.90;;;;;;4980707;28;20215;-59
2024/01/20 00:35:06;;;;;;;12.03;6.87;;;1.70;99.90;;;;;;4981640;28;20350;-58
2024/01/20 00:37:34;;;;;;;9.10;7.43;;;1.80;99.90;;;;;;4983738;28;20204;-58
2024/01/20 00:40:02;;;;;;;10.07;7.50;;;1.80;99.90;;;;;;4982716;28;20208;-59
2024/01/20 00:42:29;;;;;;;12.30;8.40;;;1.70;99.90;;;;;;4980300;28;20667;-57
2024/01/20 00:44:56;;;;;;;11.07;8.13;;;1.60;99.90;;;;;;4980037;28;20244;-57
2024/01/20 00:47:22;;;;;;;12.67;7.93;;;1.50;99.90;;;;;;4984190;28;20270;-59
2024/01/20 00:49:49;;;;;;;13.87;8.57;;;1.60;99.90;;;;;;4984227;28;20208;-58
2024/01/20 00:52:16;;;;;;;10.93;8.43;;;1.60;99.90;;;;;;4980797;28;20207;-58
2024/01/20 00:54:44;;;;;;;12.33;7.77;;;1.70;99.90;;;;;;4980008;28;20655;-58
2024/01/20 00:57:10;;;;;;;13.40;9.03;;;1.70;99.90;;;;;;4982055;28;20631;-58
2024/01/20 00:59:37;;;;;;;11.10;8.20;;;1.50;99.90;;;;;;4983886;28;20282;-59
2024/01/20 01:02:04;;;;;;;12.40;8.67;;;1.60;99.90;;;;;;4982552;28;20654;-59
2024/01/20 01:04:31;;;;;;;13.90;9.67;;;1.70;99.90;;;;;;4973883;28;20671;-62
2024/01/20 01:06:57;;;;;;;10.73;8.70;;;1.80;99.90;;;;;;4982571;28;20620;-62
2024/01/20 01:09:24;;;;;;;12.50;8.73;;;1.80;99.90;;;;;;4992522;28;20208;-60
2024/01/20 01:11:52;;;;;;;11.90;8.53;;;1.90;99.90;;;;;;4989992;28;20218;-65
2024/01/20 01:14:19;;;;;;;10.93;8.43;;;1.90;99.90;;;;;;4990864;28;20228;-61
2024/01/20 01:16:46;;;;;;;11.90;8.50;;;1.90;99.90;;;;;;4990908;28;20211;-60
2024/01/20 01:19:13;;;;;;;13.60;8.93;;;1.80;99.90;;;;;;4988253;28;20216;-60
2024/01/20 01:21:39;;;;;;;12.90;9.13;;;1.70;99.90;;;;;;4986853;28;20606;-59
2024/01/20 01:24:07;;;;;;;10.80;8.60;;;1.70;99.90;;;;;;4985815;28;20227;-59
2024/01/20 01:26:33;;;;;;;12.40;9.27;;;1.60;99.90;;;;;;4983413;28;20220;-61
2024/01/20 01:29:01;;;;;;;12.90;9.53;;;1.50;99.90;;;;;;4984056;28;20204;-60
2024/01/20 01:31:28;;;;;;;13.23;9.30;;;1.40;99.90;;;;;;4986947;28;20274;-59
2024/01/20 01:33:55;;;;;;;13.23;8.83;;;1.40;99.90;;;;;;4982190;28;20632;-60
2024/01/20 01:36:21;;;;;;;16.43;10.27;;;1.30;99.90;;;;;;4986062;28;20215;-61
2024/01/20 01:38:48;;;;;;;13.77;9.67;;;1.30;99.90;;;;;;4978680;28;20637;-60
2024/01/20 01:41:15;;;;;;;13.67;9.43;;;1.30;99.90;;;;;;4987810;28;20689;-60
2024/01/20 01:43:41;;;;;;;13.93;9.03;;;1.30;99.90;;;;;;5003267;28;20226;-62
2024/01/20 01:46:09;;;;;;;14.17;9.00;;;1.40;99.90;;;;;;4988223;28;20216;-58
2024/01/20 01:48:37;;;;;;;16.47;9.57;;;1.40;99.90;;;;;;4986273;28;20219;-59
2024/01/20 01:51:04;;;;;;;11.90;8.60;;;1.50;99.90;;;;;;4985586;28;20211;-62
2024/01/20 01:53:32;;;;;;;11.70;8.90;;;1.40;99.90;;;;;;4983010;28;20291;-60
2024/01/20 01:56:00;;;;;;;11.60;8.47;;;1.40;99.90;;;;;;4982877;28;20300;-60
2024/01/20 01:58:28;;;;;;;13.83;8.80;;;1.30;99.90;;;;;;4986610;28;20630;-60
2024/01/20 02:00:55;;;;;;;12.23;9.20;;;1.10;99.90;;;;;;4986396;28;20282;-58
2024/01/20 02:03:23;;;;;;;14.23;9.30;;;1.10;99.90;;;;;;4982802;28;20208;-61
2024/01/20 02:05:50;;;;;;;15.07;10.17;;;1.10;99.90;;;;;;4982790;28;20212;-61
2024/01/20 02:08:17;;;;;;;11.73;9.17;;;1.10;99.90;;;;;;4985327;28;20279;-62
2024/01/20 02:10:46;;;;;;;11.80;9.20;;;1.20;99.90;;;;;;4986235;28;20682;-60
2024/01/20 02:13:14;;;;;;;14.20;10.60;;;1.20;99.90;;;;;;4984018;28;20568;-60
2024/01/20 02:15:41;;;;;;;15.57;10.47;;;1.20;99.90;;;;;;4982353;28;20219;-60
2024/01/20 02:18:08;;;;;;;14.73;10.83;;;1.10;99.90;;;;;;4984053;28;20204;-60
2024/01/20 02:20:36;;;;;;;14.33;10.43;;;1.10;99.90;;;;;;4986142;28;20215;-61
2024/01/20 02:23:04;;;;;;;15.70;10.33;;;1.00;99.90;;;;;;4985496;28;20281;-60
2024/01/20 02:25:31;;;;;;;15.10;9.90;;;0.90;99.90;;;;;;4982148;28;20231;-62
2024/01/20 02:27:57;;;;;;;14.33;9.30;;;0.90;99.90;;;;;;4981665;28;20224;-60
2024/01/20 02:30:24;;;;;;;12.03;9.07;;;0.90;99.90;;;;;;4982326;28;20251;-61
2024/01/20 02:32:51;;;;;;;14.63;10.67;;;0.90;99.90;;;;;;4982684;28;20209;-60
2024/01/20 02:35:19;;;;;;;15.17;10.23;;;1.10;99.90;;;;;;4984518;28;20232;-60
2024/01/20 02:37:46;;;;;;;13.70;10.70;;;1.10;99.90;;;;;;4985834;28;20286;-60
2024/01/20 02:40:14;;;;;;;14.77;11.07;;;1.20;99.90;;;;;;4983908;28;20204;-60
2024/01/20 02:42:40;;;;;;;13.60;10.60;;;1.30;99.90;;;;;;4982278;28;20311;-60
2024/01/20 02:45:08;;;;;;;15.07;11.90;;;1.40;99.90;;;;;;4982864;28;20275;-60
2024/01/20 02:47:34;;;;;;;14.07;11.00;;;1.50;99.90;;;;;;4985275;28;20717;-60
2024/01/20 02:50:01;;;;;;;18.63;11.43;;;1.50;99.90;;;;;;4985210;28;20379;-60
2024/01/20 02:52:28;;;;;;;13.97;10.77;;;1.60;99.90;;;;;;4982245;28;20217;-60
2024/01/20 02:54:55;;;;;;;17.67;12.33;;;1.60;99.90;;;;;;4981537;28;20255;-60
2024/01/20 02:57:24;;;;;;;15.00;11.30;;;1.70;99.90;;;;;;4984728;28;20265;-59
2024/01/20 02:59:50;;;;;;;13.60;11.17;;;1.60;99.90;;;;;;4985603;28;20208;-59
2024/01/20 03:02:17;;;;;;;15.70;11.90;;;1.50;99.90;;;;;;4983081;28;20265;-61
2024/01/20 03:04:44;;;;;;;15.13;11.73;;;1.40;99.90;;;;;;4981730;28;20797;-60
2024/01/20 03:07:11;;;;;;;18.30;12.73;;;1.30;99.90;;;;;;4983111;28;20220;-61
2024/01/20 03:09:37;;;;;;;15.13;11.20;;;1.20;99.90;;;;;;4985192;28;20211;-60
2024/01/20 03:12:04;;;;;;;16.30;11.27;;;1.10;99.90;;;;;;4984353;28;20212;-58
2024/01/20 03:14:32;;;;;;;16.63;11.40;;;1.20;99.90;;;;;;4981871;28;20224;-60
2024/01/20 03:16:59;;;;;;;17.80;12.77;;;1.20;99.90;;;;;;4981563;28;20212;-59
2024/01/20 03:19:25;;;;;;;15.53;11.93;;;1.30;99.90;;;;;;4981647;28;20212;-60
2024/01/20 03:21:52;;;;;;;15.53;11.60;;;1.40;99.90;;;;;;4981496;28;20212;-59
2024/01/20 03:24:19;;;;;;;16.60;12.30;;;1.40;99.90;;;;;;4983723;28;20726;-60
2024/01/20 03:26:46;;;;;;;18.93;13.13;;;1.30;99.90;;;;;;4984819;28;20208;-59
2024/01/20 03:29:13;;;;;;;21.57;13.53;;;1.20;99.90;;;;;;4982901;28;20314;-59
2024/01/20 03:31:41;;;;;;;15.73;12.50;;;1.20;99.90;;;;;;4981209;28;20607;-60
2024/01/20 03:34:08;;;;;;;15.63;12.73;;;1.30;99.90;;;;;;4981958;28;20263;-61
2024/01/20 03:36:35;;;;;;;15.90;11.83;;;1.30;99.90;;;;;;4984229;28;20231;-60
2024/01/20 03:39:02;;;;;;;16.20;12.43;;;1.30;99.90;;;;;;4984097;28;20203;-60
2024/01/20 03:41:29;;;;;;;16.43;13.00;;;1.30;99.90;;;;;;4981211;28;20244;-60
2024/01/20 03:43:55;;;;;;;17.70;12.40;;;1.40;99.90;;;;;;4981326;28;20243;-60
2024/01/20 03:46:23;;;;;;;19.07;12.77;;;1.50;99.90;;;;;;4983908;28;20328;-59
2024/01/20 03:48:51;;;;;;;16.90;13.07;;;1.50;99.90;;;;;;4984664;28;20314;-61
2024/01/20 03:51:18;;;;;;;18.03;13.57;;;1.60;99.90;;;;;;4982021;28;20257;-61
2024/01/20 03:53:43;;;;;;;19.97;13.43;;;1.60;99.90;;;;;;4981020;28;20322;-58
2024/01/20 03:56:10;;;;;;;16.70;12.10;;;1.70;99.90;;;;;;4981915;28;20722;-57
2024/01/20 03:58:37;;;;;;;15.27;12.37;;;1.60;99.90;;;;;;4984356;28;20203;-59
2024/01/20 04:01:04;;;;;;;18.07;13.03;;;1.50;99.90;;;;;;4983962;28;20207;-56
2024/01/20 04:03:31;;;;;;;16.83;12.83;;;1.40;99.90;;;;;;4980734;28;20212;-57
2024/01/20 04:05:59;;;;;;;21.43;13.47;;;1.40;99.90;;;;;;4980695;28;20267;-58
2024/01/20 04:08:26;;;;;;;22.43;13.43;;;1.40;99.90;;;;;;4983958;28;20274;-59
2024/01/20 04:10:52;;;;;;;17.23;12.00;;;1.40;99.90;;;;;;4984397;28;20262;-57
2024/01/20 04:13:19;;;;;;;18.17;13.30;;;1.30;99.90;;;;;;4982467;28;20211;-58
2024/01/20 04:15:46;;;;;;;16.77;12.77;;;1.30;99.90;;;;;;4981747;28;20606;-57
2024/01/20 04:18:12;;;;;;;17.63;12.80;;;1.30;99.90;;;;;;4982873;28;20204;-58
2024/01/20 04:20:38;;;;;;;21.63;14.93;;;1.30;99.90;;;;;;4985156;28;20231;-57
2024/01/20 04:23:06;;;;;;;19.60;14.10;;;1.30;99.90;;;;;;4984726;28;20685;-57
2024/01/20 04:25:33;;;;;;;17.60;13.30;;;1.40;99.90;;;;;;4981917;28;20260;-57
2024/01/20 04:27:59;;;;;;;19.23;13.80;;;1.60;99.90;;;;;;4980978;28;20235;-58
2024/01/20 04:30:26;;;;;;;18.67;14.17;;;1.60;99.90;;;;;;4983770;28;20223;-58
2024/01/20 04:32:52;;;;;;;19.67;14.13;;;1.70;99.90;;;;;;4983888;28;20216;-57
2024/01/20 04:35:19;;;;;;;19.53;13.40;;;1.90;99.90;;;;;;4981224;28;20235;-57
2024/01/20 04:37:46;;;;;;;17.23;13.20;;;2.00;99.90;;;;;;4980700;28;20208;-58
2024/01/20 04:40:14;;;;;;;16.70;12.57;;;2.10;99.90;;;;;;4981726;28;20646;-57
2024/01/20 04:42:40;;;;;;;17.43;12.57;;;2.00;99.90;;;;;;4983719;28;20676;-57
2024/01/20 04:45:08;;;;;;;19.60;13.90;;;2.00;99.90;;;;;;4982938;28;20227;-57
2024/01/20 04:47:35;;;;;;;18.17;13.63;;;2.00;99.90;;;;;;4980194;28;20232;-57
2024/01/20 04:50:01;;;;;;;17.77;13.87;;;2.00;99.90;;;;;;4980345;28;20204;-57
2024/01/20 04:52:28;;;;;;;20.17;12.60;;;2.00;99.90;;;;;;4982746;28;20211;-58
2024/01/20 04:54:55;;;;;;;17.20;13.50;;;1.90;99.90;;;;;;4983793;28;20236;-58
2024/01/20 04:57:23;;;;;;;17.30;12.97;;;1.80;99.90;;;;;;4986174;28;20698;-57
2024/01/20 04:59:50;;;;;;;16.63;12.37;;;1.80;99.90;;;;;;4987392;28;20211;-56
2024/01/20 05:02:17;;;;;;;18.30;12.20;;;1.80;99.90;;;;;;4985449;28;20261;-56
2024/01/20 05:04:44;;;;;;;16.93;11.83;;;1.80;99.90;;;;;;4983811;28;20232;-57
2024/01/20 05:07:10;;;;;;;18.17;13.00;;;1.70;99.90;;;;;;4984575;28;20215;-57
2024/01/20 05:09:37;;;;;;;18.57;12.67;;;1.50;99.90;;;;;;4987042;28;20653;-57
2024/01/20 05:12:04;;;;;;;16.07;11.67;;;1.30;99.90;;;;;;4987417;28;20291;-57
2024/01/20 05:14:32;;;;;;;18.23;12.20;;;1.30;99.90;;;;;;4987363;28;20282;-58
2024/01/20 05:16:59;;;;;;;18.77;13.33;;;1.20;99.90;;;;;;4986922;28;20759;-57
2024/01/20 05:19:25;;;;;;;20.63;12.60;;;1.20;99.90;;;;;;4984237;28;20208;-58
2024/01/20 05:21:52;;;;;;;19.33;12.50;;;1.10;99.90;;;;;;4983764;28;20231;-59
2024/01/20 05:24:19;;;;;;;15.97;11.97;;;1.10;99.90;;;;;;4985556;28;20228;-57
2024/01/20 05:26:45;;;;;;;15.90;11.87;;;1.10;99.90;;;;;;4987047;28;20274;-58
2024/01/20 05:29:12;;;;;;;16.70;12.13;;;1.10;99.90;;;;;;4985803;28;20223;-56
2024/01/20 05:31:40;;;;;;;15.47;12.40;;;1.20;99.90;;;;;;4983445;28;20238;-58
2024/01/20 05:34:07;;;;;;;16.70;12.03;;;1.20;99.90;;;;;;4983603;28;20651;-59
2024/01/20 05:36:34;;;;;;;16.77;11.63;;;1.20;99.90;;;;;;4986694;28;20724;-58
2024/01/20 05:39:00;;;;;;;16.00;11.57;;;1.10;99.90;;;;;;4986755;28;20204;-60
2024/01/20 05:41:27;;;;;;;15.97;11.87;;;1.10;99.90;;;;;;4983611;28;20258;-58
2024/01/20 05:43:54;;;;;;;14.97;11.63;;;1.10;99.90;;;;;;4983206;28;20236;-57
2024/01/20 05:46:20;;;;;;;17.23;12.53;;;1.10;99.90;;;;;;4985067;28;20271;-57
2024/01/20 05:48:48;;;;;;;16.83;12.43;;;1.20;99.90;;;;;;4986745;28;20219;-58
2024/01/20 05:51:15;;;;;;;19.10;12.43;;;1.20;99.90;;;;;;4985342;28;20212;-57
2024/01/20 05:53:42;;;;;;;16.00;11.47;;;1.20;99.90;;;;;;4982835;28;20232;-56
2024/01/20 05:56:08;;;;;;;16.90;12.63;;;1.20;99.90;;;;;;4983310;28;20216;-60
2024/01/20 05:58:35;;;;;;;14.60;11.13;;;1.10;99.90;;;;;;4986153;28;20674;-57
2024/01/20 06:01:02;;;;;;;19.53;12.63;;;1.00;99.90;;;;;;4986616;28;20286;-57
2024/01/20 06:03:28;;;;;;;18.10;13.20;;;1.00;99.90;;;;;;4982767;28;20235;-59
2024/01/20 06:05:57;;;;;;;15.67;12.07;;;1.10;99.90;;;;;;4982742;28;20208;-59
2024/01/20 06:08:23;;;;;;;17.37;13.03;;;1.10;99.90;;;;;;4985231;28;20251;-58
2024/01/20 06:10:51;;;;;;;21.47;16.10;;;1.20;99.90;;;;;;4986180;28;20262;-58
2024/01/20 06:13:18;;;;;;;18.57;14.20;;;1.10;99.90;;;;;;4984131;28;20211;-57
2024/01/20 06:15:44;;;;;;;19.27;14.23;;;1.10;99.90;;;;;;4982456;28;20215;-57
2024/01/20 06:18:11;;;;;;;21.23;13.70;;;1.10;99.90;;;;;;4983427;28;20212;-57
2024/01/20 06:20:38;;;;;;;18.93;13.27;;;1.10;99.90;;;;;;4986128;28;20216;-59
2024/01/20 06:23:06;;;;;;;20.23;13.23;;;1.20;99.90;;;;;;4985929;28;20207;-58
2024/01/20 06:25:32;;;;;;;19.77;14.20;;;1.10;99.90;;;;;;4982496;28;20232;-57
2024/01/20 06:28:00;;;;;;;18.70;13.10;;;1.00;99.90;;;;;;4982320;28;20454;-56
2024/01/20 06:30:27;;;;;;;17.77;13.07;;;1.00;99.90;;;;;;4985146;28;20226;-56
2024/01/20 06:32:54;;;;;;;16.47;12.87;;;1.00;99.90;;;;;;4985695;28;20238;-58
2024/01/20 06:35:21;;;;;;;19.53;12.93;;;1.00;99.90;;;;;;4983161;28;20706;-57
2024/01/20 06:37:48;;;;;;;18.60;14.03;;;1.00;99.90;;;;;;4982269;28;20230;-58
2024/01/20 06:40:16;;;;;;;20.83;14.53;;;1.10;99.90;;;;;;4983168;28;20205;-58
2024/01/20 06:42:43;;;;;;;18.63;13.93;;;1.10;99.90;;;;;;4985074;28;20632;-57
2024/01/20 06:45:10;;;;;;;19.40;13.20;;;1.10;99.90;;;;;;4984753;28;20220;-57
2024/01/20 06:47:37;;;;;;;16.90;13.23;;;1.10;99.90;;;;;;4982189;28;20204;-59
2024/01/20 06:50:04;;;;;;;17.93;12.97;;;1.10;99.90;;;;;;4982064;28;20275;-58
2024/01/20 06:52:32;;;;;;;18.53;13.80;;;1.20;99.90;;;;;;4985116;28;20226;-58
2024/01/20 06:54:59;;;;;;;17.00;12.63;;;1.00;99.90;;;;;;4984818;28;20270;-57
2024/01/20 06:57:29;;;;;;;16.57;13.20;;;0.90;99.90;;;;;;4982759;28;20262;-57
2024/01/20 06:59:56;;;;;;;15.77;11.93;;;0.90;99.90;;;;;;4981894;28;20374;-56
2024/01/20 07:02:22;;;;;;;18.50;14.47;;;0.80;99.90;;;;;;4983847;28;20208;-57
2024/01/20 07:04:49;;;;;;;16.80;12.67;;;0.50;99.90;;;;;;4984660;28;20708;-56
2024/01/20 07:07:16;;;;;;;18.73;13.53;;;0.30;99.90;;;;;;4983733;28;20595;-57
2024/01/20 07:09:43;;;;;;;18.97;14.23;;;0.30;99.90;;;;;;4981731;28;20248;-57
2024/01/20 07:12:10;;;;;;;16.97;12.77;;;0.30;99.90;;;;;;4981970;28;20259;-57
2024/01/20 07:14:38;;;;;;;20.50;14.13;;;0.30;99.90;;;;;;4984399;28;20270;-58
2024/01/20 07:17:05;;;;;;;20.90;13.70;;;0.40;99.90;;;;;;4984916;28;20207;-58
2024/01/20 07:19:32;;;;;;;40.97;24.60;;;0.50;99.90;;;;;;4981586;28;20205;-56
2024/01/20 07:21:58;;;;;;;19.07;13.97;;;0.70;99.90;;;;;;4981238;28;20255;-59
2024/01/20 07:24:27;;;;;;;22.40;15.63;;;0.70;99.90;;;;;;4983690;28;20227;-58
2024/01/20 07:26:54;;;;;;;18.47;13.90;;;0.90;99.90;;;;;;4984525;28;20203;-58
2024/01/20 07:29:21;;;;;;;19.07;12.83;;;1.00;99.90;;;;;;4982453;28;20230;-59
2024/01/20 07:31:50;;;;;;;19.10;14.27;;;1.20;99.90;;;;;;4981192;28;20263;-56
2024/01/20 07:34:16;;;;;;;18.93;14.83;;;1.30;99.90;;;;;;4982397;28;20228;-56
2024/01/20 07:36:43;;;;;;;20.77;14.63;;;1.20;99.90;;;;;;4984486;28;20247;-56
2024/01/20 07:39:10;;;;;;;18.47;14.03;;;1.00;99.90;;;;;;4983996;28;20203;-56
2024/01/20 07:41:36;;;;;;;18.50;14.43;;;0.90;99.90;;;;;;4981218;28;20214;-56
2024/01/20 07:44:03;;;;;;;18.80;13.17;;;0.80;99.90;;;;;;4981043;28;20231;-57
2024/01/20 07:46:30;;;;;;;18.20;13.23;;;0.70;99.90;;;;;;4983640;28;20199;-57
2024/01/20 07:48:58;;;;;;;20.00;13.97;;;0.50;99.90;;;;;;4984147;28;20436;-56
2024/01/20 07:51:24;;;;;;;20.73;14.60;;;0.40;99.90;;;;;;4981878;28;20203;-56
2024/01/20 07:53:51;;;;;;;22.37;15.70;;;0.50;99.90;;;;;;4980777;28;20603;-56
2024/01/20 07:56:18;;;;;;;22.67;15.90;;;0.70;99.90;;;;;;4981503;28;20219;-57
2024/01/20 07:58:44;;;;;;;22.43;15.97;;;0.70;99.90;;;;;;4984155;28;20202;-57
2024/01/20 08:01:11;;;;;;;19.77;14.40;;;0.70;99.90;;;;;;4983796;28;20314;-56
2024/01/20 08:03:37;;;;;;;20.43;14.97;;;0.80;99.90;;;;;;4980569;28;20228;-57
2024/01/20 08:06:06;;;;;;;18.27;14.50;;;0.90;99.90;;;;;;4980689;28;20216;-57
2024/01/20 08:08:32;;;;;;;19.33;14.17;;;1.00;99.90;;;;;;4983814;28;20204;-56
2024/01/20 08:10:59;;;;;;;19.73;15.27;;;0.90;99.90;;;;;;4984005;28;20475;-56
2024/01/20 08:13:26;;;;;;;18.37;14.40;;;0.80;99.90;;;;;;4982230;28;20571;-58
2024/01/20 08:15:52;;;;;;;18.70;12.77;;;0.80;99.90;;;;;;4980804;28;20255;-57
2024/01/20 08:18:19;;;;;;;20.40;13.47;;;0.70;99.90;;;;;;4981711;28;20207;-56
2024/01/20 08:20:46;;;;;;;21.03;12.97;;;0.50;99.90;;;;;;4984055;28;20196;-58
2024/01/20 08:23:14;;;;;;;20.10;14.57;;;0.20;99.90;;;;;;4983508;28;20210;-55
2024/01/20 08:25:40;;;;;;;25.37;16.23;;;0.00;99.90;;;;;;4980343;28;20204;-56
2024/01/20 08:28:07;;;;;;;19.63;14.60;;;0.10;99.90;;;;;;4983828;28;20208;-57
2024/01/20 08:30:34;;;;;;;21.53;14.67;;;0.30;99.90;;;;;;4987669;28;20246;-57
2024/01/20 08:33:00;;;;;;;19.73;14.63;;;0.50;99.90;;;;;;4987928;28;20211;-55
2024/01/20 08:35:27;;;;;;;19.03;14.60;;;0.80;99.90;;;;;;4985168;28;20231;-56
2024/01/20 08:37:54;;;;;;;20.33;13.80;;;0.90;99.90;;;;;;4984433;28;20398;-55
2024/01/20 08:40:22;;;;;;;20.47;14.67;;;1.10;99.90;;;;;;4985749;28;20239;-56
2024/01/20 08:42:49;;;;;;;20.37;14.13;;;1.20;99.90;;;;;;4987663;28;20206;-56
2024/01/20 08:45:16;;;;;;;19.27;13.93;;;1.50;99.90;;;;;;4986083;28;20231;-57
2024/01/20 08:47:44;;;;;;;20.93;14.93;;;1.70;99.90;;;;;;4984349;28;20208;-56
2024/01/20 08:50:11;;;;;;;21.27;14.90;;;1.80;99.90;;;;;;4984310;28;20220;-58
2024/01/20 08:52:38;;;;;;;22.17;15.40;;;1.90;99.90;;;;;;4987591;28;20207;-56
2024/01/20 08:55:05;;;;;;;20.20;14.17;;;2.00;99.90;;;;;;4986941;28;20227;-57
2024/01/20 08:57:33;;;;;;;21.73;14.37;;;2.00;99.90;;;;;;4984369;28;20628;-56
2024/01/20 09:00:00;;;;;;;20.10;14.03;;;1.90;99.90;;;;;;4984034;28;20197;-57
2024/01/20 09:02:27;;;;;;;26.33;17.30;;;1.80;99.90;;;;;;4986183;28;20212;-57
2024/01/20 09:04:54;;;;;;;21.57;15.00;;;1.80;99.90;;;;;;4987187;28;20230;-56
2024/01/20 09:07:20;;;;;;;20.73;15.17;;;1.70;99.90;;;;;;4985929;28;20495;-56
2024/01/20 09:09:47;;;;;;;20.00;14.10;;;1.90;99.90;;;;;;4983829;28;20307;-57
2024/01/20 09:12:14;;;;;;;22.97;14.50;;;2.00;99.90;;;;;;4984001;28;20205;-56
2024/01/20 09:14:42;;;;;;;21.13;14.13;;;2.00;99.90;;;;;;4986637;28;20219;-58
2024/01/20 09:17:09;;;;;;;20.13;14.43;;;2.00;99.90;;;;;;4986861;28;20219;-56
2024/01/20 09:19:35;;;;;;;18.93;13.77;;;1.80;99.90;;;;;;4983733;28;20209;-57
2024/01/20 09:22:02;;;;;;;19.20;14.50;;;1.70;99.90;;;;;;4983642;28;20220;-56
2024/01/20 09:24:29;;;;;;;22.00;14.83;;;1.50;99.90;;;;;;4985701;28;20248;-56
2024/01/20 09:26:55;;;;;;;22.80;15.10;;;1.50;99.90;;;;;;4986071;28;20208;-57
2024/01/20 09:29:22;;;;;;;21.03;14.40;;;1.70;99.90;;;;;;4985356;28;20235;-56
2024/01/20 09:31:50;;;;;;;22.50;14.93;;;1.70;99.90;;;;;;4983368;28;20200;-58
2024/01/20 09:34:17;;;;;;;23.23;16.20;;;1.90;99.90;;;;;;4983868;28;20648;-56
2024/01/20 09:36:45;;;;;;;21.23;15.30;;;1.90;99.90;;;;;;4986380;28;20251;-57
2024/01/20 09:39:12;;;;;;;22.03;14.17;;;1.90;99.90;;;;;;4986055;28;20658;-57
2024/01/20 09:41:39;;;;;;;18.23;13.67;;;1.60;99.90;;;;;;4983099;28;20563;-56
2024/01/20 09:44:08;;;;;;;20.93;14.33;;;1.60;99.90;;;;;;4983045;28;20311;-57
2024/01/20 09:46:35;;;;;;;21.17;14.70;;;1.70;99.90;;;;;;4985974;28;20215;-57
2024/01/20 09:49:03;;;;;;;21.77;14.73;;;1.80;99.90;;;;;;4986470;28;20208;-58
2024/01/20 09:51:31;;;;;;;20.50;14.50;;;1.80;99.90;;;;;;4984019;28;20674;-58
2024/01/20 09:53:59;;;;;;;24.77;16.30;;;1.90;99.90;;;;;;4999153;23;20260;-55
2024/01/20 09:56:26;;;;;;;24.63;16.20;;;2.00;99.90;;;;;;5023079;28;20219;-53
2024/01/20 09:58:56;;;;;;;34.23;19.43;;;1.90;99.90;;;;;;5025905;28;20210;-55
2024/01/20 10:01:23;;;;;;;21.50;14.23;;;1.90;99.90;;;;;;5023979;28;20202;-55
2024/01/20 10:03:50;;;;;;;25.63;16.50;;;1.80;99.90;;;;;;5021928;28;20215;-54
2024/01/20 10:06:18;;;;;;;21.97;15.50;;;1.60;99.90;;;;;;5022052;28;20211;-55
2024/01/20 10:08:45;;;;;;;20.43;14.53;;;1.50;99.90;;;;;;5024998;28;20198;-54
2024/01/20 10:11:12;;;;;;;22.03;16.67;;;1.50;99.90;;;;;;5025286;28;20271;-55
2024/01/20 10:13:38;;;;;;;22.17;15.30;;;1.60;99.90;;;;;;5013861;28;20225;-55
2024/01/20 10:16:06;;;;;;;22.67;15.07;;;1.80;99.90;;;;;;5021053;28;20219;-55
2024/01/20 10:18:33;;;;;;;20.43;14.13;;;2.10;99.90;;;;;;5024222;28;20572;-55
2024/01/20 10:21:03;;;;;;;20.60;14.53;;;2.30;99.90;;;;;;5024946;28;20222;-55
2024/01/20 10:23:34;;;;;;;20.20;15.30;;;2.50;99.90;;;;;;5023067;28;20213;-56
2024/01/20 10:26:02;;;;;;;23.00;15.13;;;2.60;99.90;;;;;;5021439;28;20222;-55
2024/01/20 10:28:29;;;;;;;35.10;21.77;;;2.70;99.90;;;;;;5023700;28;20217;-55
2024/01/20 10:30:56;;;;;;;21.30;15.40;;;2.80;99.90;;;;;;5024675;28;20222;-54
2024/01/20 10:33:23;;;;;;;21.47;15.57;;;2.70;99.90;;;;;;5023188;28;20254;-53
2024/01/20 10:35:50;;;;;;;20.47;14.23;;;2.70;99.90;;;;;;5020869;28;20802;-55
2024/01/20 10:38:21;;;;;;;23.93;16.30;;;2.40;99.90;;;;;;5021589;28;20290;-54
2024/01/20 10:40:52;;;;;;;24.20;15.97;;;2.30;99.90;;;;;;5024746;28;20292;-55
2024/01/20 10:43:19;;;;;;;23.87;15.43;;;2.30;99.90;;;;;;5023484;28;20198;-55
2024/01/20 10:45:50;;;;;;;20.43;14.93;;;2.30;99.90;;;;;;5020529;28;20223;-55
2024/01/20 10:48:20;;;;;;;20.97;15.13;;;2.20;99.90;;;;;;5021068;28;20619;-55
2024/01/20 10:50:53;;;;;;;21.83;14.77;;;2.10;99.90;;;;;;5023496;28;20238;-55
2024/01/20 10:53:20;;;;;;;23.00;15.63;;;2.20;99.90;;;;;;5023399;28;20206;-55
2024/01/20 10:55:49;;;;;;;26.33;16.00;;;2.20;99.90;;;;;;5020474;28;20618;-54
2024/01/20 10:58:20;;;;;;;22.53;16.20;;;2.20;99.90;;;;;;5020755;28;20265;-55
2024/01/20 11:00:48;;;;;;;23.00;16.00;;;2.30;99.90;;;;;;5024138;28;20209;-55
2024/01/20 11:03:15;;;;;;;22.93;16.77;;;2.40;99.90;;;;;;5024170;28;20637;-54
2024/01/20 11:05:46;;;;;;;23.77;15.23;;;2.30;99.90;;;;;;5020627;28;20274;-54
2024/01/20 11:08:13;;;;;;;20.07;14.67;;;2.40;99.90;;;;;;5020597;28;20214;-54
2024/01/20 11:10:40;;;;;;;22.73;14.87;;;2.50;99.90;;;;;;5020452;28;20238;-54
2024/01/20 11:13:10;;;;;;;26.97;16.37;;;2.50;99.90;;;;;;5020344;28;20211;-53
2024/01/20 11:15:38;;;;;;;25.57;16.13;;;2.60;99.90;;;;;;5022830;28;20726;-54
2024/01/20 11:18:16;;;;;;;21.67;15.30;;;2.70;99.90;;;;;;5023641;28;20218;-54
2024/01/20 11:20:54;;;;;;;26.07;15.60;;;2.80;99.90;;;;;;5023876;28;20281;-54
2024/01/20 11:23:21;;;;;;;22.73;15.13;;;3.00;99.90;;;;;;5022654;28;20210;-54
2024/01/20 11:25:48;;;;;;;26.67;16.20;;;3.10;99.90;;;;;;5019662;28;20273;-54
2024/01/20 11:28:25;;;;;;;22.03;14.73;;;3.10;99.90;;;;;;5020260;28;20691;-53
2024/01/20 11:30:52;;;;;;;22.77;15.30;;;3.20;99.90;;;;;;5014077;28;20246;-52
2024/01/20 11:33:18;;;;;;;24.50;15.60;;;3.40;99.90;;;;;;5020637;28;20204;-54
2024/01/20 11:35:45;;;;;;;24.90;16.57;;;3.50;99.90;;;;;;5023250;28;20631;-55
2024/01/20 11:38:14;;;;;;;23.60;15.60;;;3.70;99.90;;;;;;5023340;28;20209;-54
2024/01/20 11:40:42;;;;;;;19.77;14.93;;;3.90;99.90;;;;;;5012185;28;20286;-55
2024/01/20 11:43:11;;;;;;;20.97;14.83;;;4.00;99.90;;;;;;5019991;28;20206;-55
2024/01/20 11:45:39;;;;;;;23.30;15.73;;;4.20;99.90;;;;;;5022433;28;20217;-55
2024/01/20 11:48:06;;;;;;;26.80;16.83;;;4.40;99.90;;;;;;5023441;28;20209;-55
2024/01/20 11:50:33;;;;;;;21.47;16.03;;;4.50;99.90;;;;;;5020646;28;20726;-56
2024/01/20 11:53:00;;;;;;;26.40;15.90;;;4.40;99.90;;;;;;5019761;28;20203;-55
2024/01/20 11:55:27;;;;;;;21.80;15.33;;;4.50;99.90;;;;;;5020748;28;20850;-55
2024/01/20 11:57:55;;;;;;;20.60;15.37;;;4.70;99.90;;;;;;5023134;28;20206;-55
2024/01/20 12:00:22;;;;;;;22.90;15.13;;;4.70;99.90;;;;;;5022090;28;20234;-55
2024/01/20 12:02:52;;;;;;;21.37;15.87;;;4.70;99.90;;;;;;5019814;28;20225;-56
2024/01/20 12:05:19;;;;;;;20.33;14.87;;;4.80;99.90;;;;;;5019506;28;20235;-57
2024/01/20 12:07:46;;;;;;;22.23;15.13;;;4.70;99.90;;;;;;5022897;28;20221;-55
2024/01/20 12:10:15;;;;;;;19.37;14.47;;;4.80;99.90;;;;;;5012851;28;20227;-55
2024/01/20 12:12:42;;;;;;;26.10;16.73;;;4.70;99.90;;;;;;5011550;28;20210;-57
2024/01/20 12:15:09;;;;;;;21.63;14.17;;;4.70;99.90;;;;;;5019079;28;20227;-58
2024/01/20 12:17:36;;;;;;;21.20;14.77;;;4.60;99.90;;;;;;5021968;28;20214;-57
2024/01/20 12:20:05;;;;;;;20.90;14.17;;;4.60;99.90;;;;;;5021842;28;20210;-58
2024/01/20 12:22:32;;;;;;;17.43;13.40;;;4.70;99.90;;;;;;5020946;28;20213;-55
2024/01/20 12:24:59;;;;;;;20.30;14.27;;;4.80;99.90;;;;;;5019267;28;20286;-56
2024/01/20 12:27:27;;;;;;;19.57;14.07;;;4.80;99.90;;;;;;5020829;28;20361;-57
2024/01/20 12:29:54;;;;;;;18.27;12.30;;;5.00;99.90;;;;;;5022697;28;20656;-58
2024/01/20 12:32:21;;;;;;;19.17;12.53;;;5.00;99.90;;;;;;5021485;28;20285;-58
2024/01/20 12:34:47;;;;;;;16.33;12.57;;;4.80;99.90;;;;;;5019452;28;20235;-61
2024/01/20 12:37:15;;;;;;;19.57;12.77;;;4.50;99.90;;;;;;5019481;28;20207;-59